sensor_id;sensor_type;location;lat;lon;timestamp;P1;durP1;ratioP1;P2;durP2;ratioP2
36247;SDS011;22287;50.824;5.644;2023-04-09T00:00:42;30.27;;;18.80;;
36247;SDS011;22287;50.824;5.644;2023-04-09T00:03:09;31.75;;;19.35;;
36247;SDS011;22287;50.824;5.644;2023-04-09T00:05:39;27.52;;;17.17;;
36247;SDS011;22287;50.824;5.644;2023-04-09T00:08:06;28.50;;;17.73;;
36247;SDS011;22287;50.824;5.644;2023-04-09T00:10:33;28.98;;;18.08;;
36247;SDS011;22287;50.824;5.644;2023-04-09T00:13:00;30.23;;;17.48;;
36247;SDS011;22287;50.824;5.644;2023-04-09T00:15:27;28.40;;;17.65;;
36247;SDS011;22287;50.824;5.644;2023-04-09T00:17:57;28.80;;;17.92;;
36247;SDS011;22287;50.824;5.644;2023-04-09T00:20:24;29.80;;;18.40;;
36247;SDS011;22287;50.824;5.644;2023-04-09T00:22:51;30.48;;;18.55;;
36247;SDS011;22287;50.824;5.644;2023-04-09T00:25:17;29.20;;;16.92;;
36247;SDS011;22287;50.824;5.644;2023-04-09T00:27:45;28.88;;;18.13;;
36247;SDS011;22287;50.824;5.644;2023-04-09T00:30:12;28.55;;;16.50;;
36247;SDS011;22287;50.824;5.644;2023-04-09T00:32:39;27.73;;;17.20;;
36247;SDS011;22287;50.824;5.644;2023-04-09T00:35:09;29.20;;;17.50;;
36247;SDS011;22287;50.824;5.644;2023-04-09T00:37:38;33.15;;;18.25;;
36247;SDS011;22287;50.824;5.644;2023-04-09T00:40:05;29.48;;;18.13;;
36247;SDS011;22287;50.824;5.644;2023-04-09T00:42:32;31.38;;;18.58;;
36247;SDS011;22287;50.824;5.644;2023-04-09T00:45:00;28.42;;;17.77;;
36247;SDS011;22287;50.824;5.644;2023-04-09T00:47:27;27.00;;;17.30;;
36247;SDS011;22287;50.824;5.644;2023-04-09T00:49:55;28.60;;;16.90;;
36247;SDS011;22287;50.824;5.644;2023-04-09T00:52:23;29.75;;;17.55;;
36247;SDS011;22287;50.824;5.644;2023-04-09T00:54:50;27.92;;;17.20;;
36247;SDS011;22287;50.824;5.644;2023-04-09T00:57:18;26.63;;;16.83;;
36247;SDS011;22287;50.824;5.644;2023-04-09T00:59:45;29.40;;;18.15;;
36247;SDS011;22287;50.824;5.644;2023-04-09T01:02:12;29.95;;;19.30;;
36247;SDS011;22287;50.824;5.644;2023-04-09T01:04:39;29.15;;;18.52;;
36247;SDS011;22287;50.824;5.644;2023-04-09T01:10:23;34.30;;;18.92;;
36247;SDS011;22287;50.824;5.644;2023-04-09T01:15:43;28.42;;;16.25;;
36247;SDS011;22287;50.824;5.644;2023-04-09T01:21:03;27.98;;;16.45;;
36247;SDS011;22287;50.824;5.644;2023-04-09T01:26:14;27.33;;;16.40;;
36247;SDS011;22287;50.824;5.644;2023-04-09T01:28:55;25.83;;;14.70;;
36247;SDS011;22287;50.824;5.644;2023-04-09T01:31:29;26.08;;;15.55;;
36247;SDS011;22287;50.824;5.644;2023-04-09T01:34:00;25.05;;;15.48;;
36247;SDS011;22287;50.824;5.644;2023-04-09T01:36:28;25.88;;;15.25;;
36247;SDS011;22287;50.824;5.644;2023-04-09T01:38:59;25.30;;;15.27;;
36247;SDS011;22287;50.824;5.644;2023-04-09T01:41:27;22.10;;;13.70;;
36247;SDS011;22287;50.824;5.644;2023-04-09T01:43:57;24.33;;;13.73;;
36247;SDS011;22287;50.824;5.644;2023-04-09T01:46:27;22.90;;;13.73;;
36247;SDS011;22287;50.824;5.644;2023-04-09T01:48:55;26.52;;;15.10;;
36247;SDS011;22287;50.824;5.644;2023-04-09T01:51:22;25.67;;;15.32;;
36247;SDS011;22287;50.824;5.644;2023-04-09T01:53:49;23.23;;;14.27;;
36247;SDS011;22287;50.824;5.644;2023-04-09T01:56:17;24.33;;;14.98;;
36247;SDS011;22287;50.824;5.644;2023-04-09T01:58:44;26.80;;;15.00;;
36247;SDS011;22287;50.824;5.644;2023-04-09T02:01:13;24.05;;;14.77;;
36247;SDS011;22287;50.824;5.644;2023-04-09T02:03:47;22.73;;;12.85;;
36247;SDS011;22287;50.824;5.644;2023-04-09T02:06:39;23.30;;;12.93;;
36247;SDS011;22287;50.824;5.644;2023-04-09T02:09:11;24.33;;;13.70;;
36247;SDS011;22287;50.824;5.644;2023-04-09T02:11:45;21.92;;;12.93;;
36247;SDS011;22287;50.824;5.644;2023-04-09T02:14:14;27.05;;;12.98;;
36247;SDS011;22287;50.824;5.644;2023-04-09T02:16:41;21.80;;;12.82;;
36247;SDS011;22287;50.824;5.644;2023-04-09T02:19:09;23.50;;;13.23;;
36247;SDS011;22287;50.824;5.644;2023-04-09T02:21:36;20.10;;;11.95;;
36247;SDS011;22287;50.824;5.644;2023-04-09T02:24:03;20.42;;;12.65;;
36247;SDS011;22287;50.824;5.644;2023-04-09T02:26:30;23.35;;;13.57;;
36247;SDS011;22287;50.824;5.644;2023-04-09T02:28:57;22.83;;;13.13;;
36247;SDS011;22287;50.824;5.644;2023-04-09T02:31:24;23.73;;;12.60;;
36247;SDS011;22287;50.824;5.644;2023-04-09T02:33:51;21.63;;;12.52;;
36247;SDS011;22287;50.824;5.644;2023-04-09T02:36:19;22.63;;;12.70;;
36247;SDS011;22287;50.824;5.644;2023-04-09T02:38:47;18.88;;;11.52;;
36247;SDS011;22287;50.824;5.644;2023-04-09T02:41:14;21.30;;;12.07;;
36247;SDS011;22287;50.824;5.644;2023-04-09T02:43:41;21.10;;;12.43;;
36247;SDS011;22287;50.824;5.644;2023-04-09T02:46:07;21.42;;;12.93;;
36247;SDS011;22287;50.824;5.644;2023-04-09T02:48:35;22.58;;;14.02;;
36247;SDS011;22287;50.824;5.644;2023-04-09T02:51:03;27.90;;;15.05;;
36247;SDS011;22287;50.824;5.644;2023-04-09T02:53:31;25.33;;;14.65;;
36247;SDS011;22287;50.824;5.644;2023-04-09T02:55:58;20.30;;;12.35;;
36247;SDS011;22287;50.824;5.644;2023-04-09T02:58:25;21.67;;;12.10;;
36247;SDS011;22287;50.824;5.644;2023-04-09T03:00:52;22.42;;;12.73;;
36247;SDS011;22287;50.824;5.644;2023-04-09T03:03:19;23.25;;;12.60;;
36247;SDS011;22287;50.824;5.644;2023-04-09T03:05:46;21.80;;;12.85;;
36247;SDS011;22287;50.824;5.644;2023-04-09T03:08:13;21.75;;;13.45;;
36247;SDS011;22287;50.824;5.644;2023-04-09T03:10:40;25.35;;;13.27;;
36247;SDS011;22287;50.824;5.644;2023-04-09T03:13:06;23.05;;;13.40;;
36247;SDS011;22287;50.824;5.644;2023-04-09T03:15:33;23.10;;;13.82;;
36247;SDS011;22287;50.824;5.644;2023-04-09T03:18:00;22.65;;;13.13;;
36247;SDS011;22287;50.824;5.644;2023-04-09T03:20:27;25.25;;;14.00;;
36247;SDS011;22287;50.824;5.644;2023-04-09T03:22:54;24.75;;;13.90;;
36247;SDS011;22287;50.824;5.644;2023-04-09T03:25:28;24.95;;;15.32;;
36247;SDS011;22287;50.824;5.644;2023-04-09T03:27:56;25.60;;;14.65;;
36247;SDS011;22287;50.824;5.644;2023-04-09T03:30:35;27.98;;;16.10;;
36247;SDS011;22287;50.824;5.644;2023-04-09T03:33:04;26.92;;;14.50;;
36247;SDS011;22287;50.824;5.644;2023-04-09T03:35:36;24.98;;;14.15;;
36247;SDS011;22287;50.824;5.644;2023-04-09T03:38:03;22.40;;;12.48;;
36247;SDS011;22287;50.824;5.644;2023-04-09T03:40:30;22.27;;;13.18;;
36247;SDS011;22287;50.824;5.644;2023-04-09T03:42:58;22.23;;;12.15;;
36247;SDS011;22287;50.824;5.644;2023-04-09T03:45:25;22.75;;;12.25;;
36247;SDS011;22287;50.824;5.644;2023-04-09T03:47:59;22.63;;;13.93;;
36247;SDS011;22287;50.824;5.644;2023-04-09T03:50:26;22.30;;;13.75;;
36247;SDS011;22287;50.824;5.644;2023-04-09T03:52:54;24.48;;;13.48;;
36247;SDS011;22287;50.824;5.644;2023-04-09T03:55:21;21.90;;;12.85;;
36247;SDS011;22287;50.824;5.644;2023-04-09T03:57:50;21.23;;;12.45;;
36247;SDS011;22287;50.824;5.644;2023-04-09T04:00:20;18.40;;;10.82;;
36247;SDS011;22287;50.824;5.644;2023-04-09T04:03:10;16.00;;;9.90;;
36247;SDS011;22287;50.824;5.644;2023-04-09T04:06:00;17.60;;;10.02;;
36247;SDS011;22287;50.824;5.644;2023-04-09T04:08:38;15.65;;;9.20;;
36247;SDS011;22287;50.824;5.644;2023-04-09T04:11:05;17.13;;;9.98;;
36247;SDS011;22287;50.824;5.644;2023-04-09T04:13:33;20.42;;;11.27;;
36247;SDS011;22287;50.824;5.644;2023-04-09T04:16:07;20.88;;;12.50;;
36247;SDS011;22287;50.824;5.644;2023-04-09T04:18:36;20.58;;;11.50;;
36247;SDS011;22287;50.824;5.644;2023-04-09T04:21:03;22.17;;;13.02;;
36247;SDS011;22287;50.824;5.644;2023-04-09T04:23:32;22.63;;;12.18;;
36247;SDS011;22287;50.824;5.644;2023-04-09T04:26:12;23.23;;;13.70;;
36247;SDS011;22287;50.824;5.644;2023-04-09T04:28:39;26.90;;;15.27;;
36247;SDS011;22287;50.824;5.644;2023-04-09T04:31:10;29.45;;;15.43;;
36247;SDS011;22287;50.824;5.644;2023-04-09T04:33:39;29.25;;;15.30;;
36247;SDS011;22287;50.824;5.644;2023-04-09T04:36:12;29.42;;;16.75;;
36247;SDS011;22287;50.824;5.644;2023-04-09T04:38:44;28.83;;;16.58;;
36247;SDS011;22287;50.824;5.644;2023-04-09T04:41:25;30.02;;;17.15;;
36247;SDS011;22287;50.824;5.644;2023-04-09T04:44:04;25.35;;;15.57;;
36247;SDS011;22287;50.824;5.644;2023-04-09T04:46:31;30.48;;;16.70;;
36247;SDS011;22287;50.824;5.644;2023-04-09T04:48:58;29.35;;;17.42;;
36247;SDS011;22287;50.824;5.644;2023-04-09T04:51:25;28.50;;;16.52;;
36247;SDS011;22287;50.824;5.644;2023-04-09T04:54:01;31.00;;;15.95;;
36247;SDS011;22287;50.824;5.644;2023-04-09T04:56:28;26.55;;;14.75;;
36247;SDS011;22287;50.824;5.644;2023-04-09T04:59:15;28.67;;;16.15;;
36247;SDS011;22287;50.824;5.644;2023-04-09T05:01:56;28.92;;;15.45;;
36247;SDS011;22287;50.824;5.644;2023-04-09T05:04:24;24.50;;;14.02;;
36247;SDS011;22287;50.824;5.644;2023-04-09T05:06:53;24.40;;;13.32;;
36247;SDS011;22287;50.824;5.644;2023-04-09T05:09:21;22.75;;;13.30;;
36247;SDS011;22287;50.824;5.644;2023-04-09T05:11:57;20.98;;;12.43;;
36247;SDS011;22287;50.824;5.644;2023-04-09T05:14:24;24.85;;;13.98;;
36247;SDS011;22287;50.824;5.644;2023-04-09T05:16:51;24.98;;;13.30;;
36247;SDS011;22287;50.824;5.644;2023-04-09T05:19:22;21.17;;;12.95;;
36247;SDS011;22287;50.824;5.644;2023-04-09T05:21:55;23.02;;;11.80;;
36247;SDS011;22287;50.824;5.644;2023-04-09T05:24:22;22.55;;;12.10;;
36247;SDS011;22287;50.824;5.644;2023-04-09T05:26:49;20.08;;;11.63;;
36247;SDS011;22287;50.824;5.644;2023-04-09T05:29:16;21.27;;;11.27;;
36247;SDS011;22287;50.824;5.644;2023-04-09T05:31:43;23.02;;;11.63;;
36247;SDS011;22287;50.824;5.644;2023-04-09T05:34:19;21.45;;;12.32;;
36247;SDS011;22287;50.824;5.644;2023-04-09T05:36:50;19.83;;;11.90;;
36247;SDS011;22287;50.824;5.644;2023-04-09T05:39:19;19.70;;;11.38;;
36247;SDS011;22287;50.824;5.644;2023-04-09T05:41:46;21.88;;;11.80;;
36247;SDS011;22287;50.824;5.644;2023-04-09T05:44:39;21.50;;;12.50;;
36247;SDS011;22287;50.824;5.644;2023-04-09T05:47:16;22.40;;;12.70;;
36247;SDS011;22287;50.824;5.644;2023-04-09T05:49:54;19.90;;;10.93;;
36247;SDS011;22287;50.824;5.644;2023-04-09T05:52:21;20.67;;;12.02;;
36247;SDS011;22287;50.824;5.644;2023-04-09T05:54:49;24.25;;;13.23;;
36247;SDS011;22287;50.824;5.644;2023-04-09T05:57:22;21.67;;;13.02;;
36247;SDS011;22287;50.824;5.644;2023-04-09T05:59:55;20.63;;;12.05;;
36247;SDS011;22287;50.824;5.644;2023-04-09T06:02:23;22.77;;;12.73;;
36247;SDS011;22287;50.824;5.644;2023-04-09T06:04:52;20.73;;;12.35;;
36247;SDS011;22287;50.824;5.644;2023-04-09T06:07:19;25.67;;;14.13;;
36247;SDS011;22287;50.824;5.644;2023-04-09T06:09:46;21.23;;;12.82;;
36247;SDS011;22287;50.824;5.644;2023-04-09T06:12:13;22.50;;;13.35;;
36247;SDS011;22287;50.824;5.644;2023-04-09T06:14:41;29.27;;;15.38;;
36247;SDS011;22287;50.824;5.644;2023-04-09T06:17:07;27.70;;;14.73;;
36247;SDS011;22287;50.824;5.644;2023-04-09T06:19:35;26.02;;;13.32;;
36247;SDS011;22287;50.824;5.644;2023-04-09T06:22:02;21.63;;;13.18;;
36247;SDS011;22287;50.824;5.644;2023-04-09T06:24:29;23.85;;;13.63;;
36247;SDS011;22287;50.824;5.644;2023-04-09T06:26:58;27.20;;;15.18;;
36247;SDS011;22287;50.824;5.644;2023-04-09T06:29:26;25.83;;;14.43;;
36247;SDS011;22287;50.824;5.644;2023-04-09T06:31:53;27.00;;;15.82;;
36247;SDS011;22287;50.824;5.644;2023-04-09T06:34:20;36.28;;;19.63;;
36247;SDS011;22287;50.824;5.644;2023-04-09T06:36:47;39.47;;;20.33;;
36247;SDS011;22287;50.824;5.644;2023-04-09T06:39:13;46.92;;;22.13;;
36247;SDS011;22287;50.824;5.644;2023-04-09T06:41:40;40.22;;;21.30;;
36247;SDS011;22287;50.824;5.644;2023-04-09T06:44:22;50.08;;;24.75;;
36247;SDS011;22287;50.824;5.644;2023-04-09T06:46:49;42.03;;;24.15;;
36247;SDS011;22287;50.824;5.644;2023-04-09T06:49:16;36.53;;;19.67;;
36247;SDS011;22287;50.824;5.644;2023-04-09T06:51:43;40.30;;;20.15;;
36247;SDS011;22287;50.824;5.644;2023-04-09T06:54:10;40.30;;;22.35;;
36247;SDS011;22287;50.824;5.644;2023-04-09T06:56:37;40.92;;;22.50;;
36247;SDS011;22287;50.824;5.644;2023-04-09T06:59:03;36.72;;;20.13;;
36247;SDS011;22287;50.824;5.644;2023-04-09T07:01:31;40.22;;;22.05;;
36247;SDS011;22287;50.824;5.644;2023-04-09T07:03:58;41.58;;;22.70;;
36247;SDS011;22287;50.824;5.644;2023-04-09T07:06:25;40.53;;;20.33;;
36247;SDS011;22287;50.824;5.644;2023-04-09T07:08:52;39.72;;;21.70;;
36247;SDS011;22287;50.824;5.644;2023-04-09T07:11:19;37.05;;;20.92;;
36247;SDS011;22287;50.824;5.644;2023-04-09T07:13:46;39.75;;;22.52;;
36247;SDS011;22287;50.824;5.644;2023-04-09T07:16:13;40.42;;;20.58;;
36247;SDS011;22287;50.824;5.644;2023-04-09T07:18:40;37.13;;;20.55;;
36247;SDS011;22287;50.824;5.644;2023-04-09T07:21:07;35.45;;;22.30;;
36247;SDS011;22287;50.824;5.644;2023-04-09T07:23:34;38.75;;;22.17;;
36247;SDS011;22287;50.824;5.644;2023-04-09T07:26:04;43.55;;;22.35;;
36247;SDS011;22287;50.824;5.644;2023-04-09T07:28:31;45.30;;;23.20;;
36247;SDS011;22287;50.824;5.644;2023-04-09T07:30:59;38.08;;;22.38;;
36247;SDS011;22287;50.824;5.644;2023-04-09T07:33:30;39.65;;;22.33;;
36247;SDS011;22287;50.824;5.644;2023-04-09T07:35:57;38.58;;;21.67;;
36247;SDS011;22287;50.824;5.644;2023-04-09T07:38:24;42.67;;;22.80;;
36247;SDS011;22287;50.824;5.644;2023-04-09T07:40:50;38.30;;;22.05;;
36247;SDS011;22287;50.824;5.644;2023-04-09T07:43:17;37.05;;;21.30;;
36247;SDS011;22287;50.824;5.644;2023-04-09T07:45:49;43.30;;;23.33;;
36247;SDS011;22287;50.824;5.644;2023-04-09T07:48:19;36.35;;;22.45;;
36247;SDS011;22287;50.824;5.644;2023-04-09T07:50:46;35.30;;;21.35;;
36247;SDS011;22287;50.824;5.644;2023-04-09T07:53:13;36.60;;;22.88;;
36247;SDS011;22287;50.824;5.644;2023-04-09T07:55:40;40.97;;;22.55;;
36247;SDS011;22287;50.824;5.644;2023-04-09T07:58:07;39.15;;;22.30;;
36247;SDS011;22287;50.824;5.644;2023-04-09T08:00:33;35.40;;;22.10;;
36247;SDS011;22287;50.824;5.644;2023-04-09T08:03:00;36.88;;;22.17;;
36247;SDS011;22287;50.824;5.644;2023-04-09T08:05:29;36.72;;;21.17;;
36247;SDS011;22287;50.824;5.644;2023-04-09T08:07:56;36.25;;;21.45;;
36247;SDS011;22287;50.824;5.644;2023-04-09T08:10:23;33.13;;;20.65;;
36247;SDS011;22287;50.824;5.644;2023-04-09T08:12:50;34.67;;;21.63;;
36247;SDS011;22287;50.824;5.644;2023-04-09T08:15:16;35.55;;;20.65;;
36247;SDS011;22287;50.824;5.644;2023-04-09T08:17:43;36.10;;;20.83;;
36247;SDS011;22287;50.824;5.644;2023-04-09T08:20:11;33.28;;;20.85;;
36247;SDS011;22287;50.824;5.644;2023-04-09T08:22:38;31.63;;;19.48;;
36247;SDS011;22287;50.824;5.644;2023-04-09T08:25:06;33.58;;;20.08;;
36247;SDS011;22287;50.824;5.644;2023-04-09T08:27:33;29.77;;;19.42;;
36247;SDS011;22287;50.824;5.644;2023-04-09T08:30:01;31.70;;;18.73;;
36247;SDS011;22287;50.824;5.644;2023-04-09T08:32:29;31.92;;;19.25;;
36247;SDS011;22287;50.824;5.644;2023-04-09T08:34:56;31.10;;;20.58;;
36247;SDS011;22287;50.824;5.644;2023-04-09T08:37:23;33.33;;;20.65;;
36247;SDS011;22287;50.824;5.644;2023-04-09T08:39:49;31.42;;;19.73;;
36247;SDS011;22287;50.824;5.644;2023-04-09T08:42:17;37.17;;;22.00;;
36247;SDS011;22287;50.824;5.644;2023-04-09T08:44:44;30.95;;;19.92;;
36247;SDS011;22287;50.824;5.644;2023-04-09T08:47:11;32.40;;;20.67;;
36247;SDS011;22287;50.824;5.644;2023-04-09T08:49:39;32.53;;;20.35;;
36247;SDS011;22287;50.824;5.644;2023-04-09T08:52:07;30.98;;;19.85;;
36247;SDS011;22287;50.824;5.644;2023-04-09T08:54:33;33.80;;;20.35;;
36247;SDS011;22287;50.824;5.644;2023-04-09T08:57:05;32.85;;;20.42;;
36247;SDS011;22287;50.824;5.644;2023-04-09T08:59:31;33.53;;;20.58;;
36247;SDS011;22287;50.824;5.644;2023-04-09T09:02:06;29.92;;;19.20;;
36247;SDS011;22287;50.824;5.644;2023-04-09T09:04:43;33.72;;;20.60;;
36247;SDS011;22287;50.824;5.644;2023-04-09T09:07:11;29.33;;;19.38;;
36247;SDS011;22287;50.824;5.644;2023-04-09T09:10:00;30.33;;;19.27;;
36247;SDS011;22287;50.824;5.644;2023-04-09T09:12:38;30.67;;;19.17;;
36247;SDS011;22287;50.824;5.644;2023-04-09T09:15:26;30.55;;;18.08;;
36247;SDS011;22287;50.824;5.644;2023-04-09T09:17:58;28.73;;;18.55;;
36247;SDS011;22287;50.824;5.644;2023-04-09T09:20:26;29.98;;;18.48;;
36247;SDS011;22287;50.824;5.644;2023-04-09T09:22:54;28.85;;;17.55;;
36247;SDS011;22287;50.824;5.644;2023-04-09T09:25:22;29.25;;;19.13;;
36247;SDS011;22287;50.824;5.644;2023-04-09T09:27:51;26.17;;;17.50;;
36247;SDS011;22287;50.824;5.644;2023-04-09T09:30:20;25.42;;;18.15;;
36247;SDS011;22287;50.824;5.644;2023-04-09T09:32:51;27.70;;;17.00;;
36247;SDS011;22287;50.824;5.644;2023-04-09T09:38:19;27.90;;;18.77;;
36247;SDS011;22287;50.824;5.644;2023-04-09T09:40:46;23.30;;;15.90;;
36247;SDS011;22287;50.824;5.644;2023-04-09T09:43:14;24.38;;;16.77;;
36247;SDS011;22287;50.824;5.644;2023-04-09T09:45:41;25.08;;;16.38;;
36247;SDS011;22287;50.824;5.644;2023-04-09T09:48:09;23.73;;;16.50;;
36247;SDS011;22287;50.824;5.644;2023-04-09T09:50:38;24.98;;;16.45;;
36247;SDS011;22287;50.824;5.644;2023-04-09T09:53:10;25.95;;;15.57;;
36247;SDS011;22287;50.824;5.644;2023-04-09T09:55:38;22.45;;;15.90;;
36247;SDS011;22287;50.824;5.644;2023-04-09T09:58:16;23.75;;;15.52;;
36247;SDS011;22287;50.824;5.644;2023-04-09T10:00:49;22.95;;;15.40;;
36247;SDS011;22287;50.824;5.644;2023-04-09T10:03:22;21.27;;;14.10;;
36247;SDS011;22287;50.824;5.644;2023-04-09T10:05:53;22.27;;;15.20;;
36247;SDS011;22287;50.824;5.644;2023-04-09T10:08:21;24.70;;;15.48;;
36247;SDS011;22287;50.824;5.644;2023-04-09T10:10:50;23.75;;;14.90;;
36247;SDS011;22287;50.824;5.644;2023-04-09T10:13:19;22.13;;;15.23;;
36247;SDS011;22287;50.824;5.644;2023-04-09T10:15:51;20.83;;;15.05;;
36247;SDS011;22287;50.824;5.644;2023-04-09T10:18:18;19.52;;;14.80;;
36247;SDS011;22287;50.824;5.644;2023-04-09T10:20:48;18.77;;;13.10;;
36247;SDS011;22287;50.824;5.644;2023-04-09T10:25:59;19.08;;;13.60;;
36247;SDS011;22287;50.824;5.644;2023-04-09T10:28:26;21.85;;;13.52;;
36247;SDS011;22287;50.824;5.644;2023-04-09T10:30:53;18.92;;;13.25;;
36247;SDS011;22287;50.824;5.644;2023-04-09T10:33:21;22.05;;;13.45;;
36247;SDS011;22287;50.824;5.644;2023-04-09T10:35:54;17.45;;;12.50;;
36247;SDS011;22287;50.824;5.644;2023-04-09T10:43:47;21.88;;;13.35;;
36247;SDS011;22287;50.824;5.644;2023-04-09T10:46:48;14.82;;;10.15;;
36247;SDS011;22287;50.824;5.644;2023-04-09T10:49:15;16.55;;;12.10;;
36247;SDS011;22287;50.824;5.644;2023-04-09T10:51:50;15.77;;;10.65;;
36247;SDS011;22287;50.824;5.644;2023-04-09T10:59:33;12.85;;;9.48;;
36247;SDS011;22287;50.824;5.644;2023-04-09T11:02:17;13.93;;;9.52;;
36247;SDS011;22287;50.824;5.644;2023-04-09T11:05:10;10.55;;;7.88;;
36247;SDS011;22287;50.824;5.644;2023-04-09T11:10:35;10.80;;;7.70;;
36247;SDS011;22287;50.824;5.644;2023-04-09T11:13:03;11.18;;;7.60;;
36247;SDS011;22287;50.824;5.644;2023-04-09T11:15:34;11.10;;;8.00;;
36247;SDS011;22287;50.824;5.644;2023-04-09T11:18:02;12.57;;;7.85;;
36247;SDS011;22287;50.824;5.644;2023-04-09T11:20:29;10.20;;;7.80;;
36247;SDS011;22287;50.824;5.644;2023-04-09T11:22:57;11.32;;;7.88;;
36247;SDS011;22287;50.824;5.644;2023-04-09T11:25:26;11.90;;;8.25;;
36247;SDS011;22287;50.824;5.644;2023-04-09T11:27:54;11.32;;;7.82;;
36247;SDS011;22287;50.824;5.644;2023-04-09T11:30:21;11.82;;;8.15;;
36247;SDS011;22287;50.824;5.644;2023-04-09T11:32:48;11.90;;;8.18;;
36247;SDS011;22287;50.824;5.644;2023-04-09T11:35:19;11.60;;;7.88;;
36247;SDS011;22287;50.824;5.644;2023-04-09T11:37:47;10.50;;;7.75;;
36247;SDS011;22287;50.824;5.644;2023-04-09T11:40:19;12.52;;;8.77;;
36247;SDS011;22287;50.824;5.644;2023-04-09T11:42:48;12.07;;;7.88;;
36247;SDS011;22287;50.824;5.644;2023-04-09T11:45:17;8.35;;;6.45;;
36247;SDS011;22287;50.824;5.644;2023-04-09T11:47:44;8.52;;;6.07;;
36247;SDS011;22287;50.824;5.644;2023-04-09T11:50:13;8.55;;;6.13;;
36247;SDS011;22287;50.824;5.644;2023-04-09T11:52:41;9.45;;;7.47;;
36247;SDS011;22287;50.824;5.644;2023-04-09T11:55:08;9.80;;;7.10;;
36247;SDS011;22287;50.824;5.644;2023-04-09T11:57:36;7.97;;;6.30;;
36247;SDS011;22287;50.824;5.644;2023-04-09T12:00:11;9.52;;;7.07;;
36247;SDS011;22287;50.824;5.644;2023-04-09T12:02:48;8.90;;;6.47;;
36247;SDS011;22287;50.824;5.644;2023-04-09T12:05:21;8.48;;;5.93;;
36247;SDS011;22287;50.824;5.644;2023-04-09T12:07:50;9.38;;;6.63;;
36247;SDS011;22287;50.824;5.644;2023-04-09T12:10:25;10.98;;;6.93;;
36247;SDS011;22287;50.824;5.644;2023-04-09T12:13:02;10.82;;;7.18;;
36247;SDS011;22287;50.824;5.644;2023-04-09T12:15:33;10.05;;;6.90;;
36247;SDS011;22287;50.824;5.644;2023-04-09T12:18:02;9.40;;;6.68;;
36247;SDS011;22287;50.824;5.644;2023-04-09T12:20:37;10.70;;;6.40;;
36247;SDS011;22287;50.824;5.644;2023-04-09T12:23:06;10.45;;;6.43;;
36247;SDS011;22287;50.824;5.644;2023-04-09T12:25:34;11.38;;;6.47;;
36247;SDS011;22287;50.824;5.644;2023-04-09T12:28:03;8.60;;;6.65;;
36247;SDS011;22287;50.824;5.644;2023-04-09T12:30:31;7.97;;;6.32;;
36247;SDS011;22287;50.824;5.644;2023-04-09T12:32:59;7.70;;;5.95;;
36247;SDS011;22287;50.824;5.644;2023-04-09T12:35:26;8.43;;;6.05;;
36247;SDS011;22287;50.824;5.644;2023-04-09T12:37:53;9.55;;;6.63;;
36247;SDS011;22287;50.824;5.644;2023-04-09T12:40:20;7.80;;;5.55;;
36247;SDS011;22287;50.824;5.644;2023-04-09T12:42:47;9.07;;;5.82;;
36247;SDS011;22287;50.824;5.644;2023-04-09T12:45:15;8.07;;;5.93;;
36247;SDS011;22287;50.824;5.644;2023-04-09T12:47:43;8.68;;;6.25;;
36247;SDS011;22287;50.824;5.644;2023-04-09T12:50:10;9.25;;;6.35;;
36247;SDS011;22287;50.824;5.644;2023-04-09T12:52:39;8.93;;;6.25;;
36247;SDS011;22287;50.824;5.644;2023-04-09T12:55:06;10.80;;;6.43;;
36247;SDS011;22287;50.824;5.644;2023-04-09T12:57:33;8.05;;;5.20;;
36247;SDS011;22287;50.824;5.644;2023-04-09T13:00:00;8.73;;;6.43;;
36247;SDS011;22287;50.824;5.644;2023-04-09T13:02:27;6.45;;;4.97;;
36247;SDS011;22287;50.824;5.644;2023-04-09T13:04:53;7.55;;;6.03;;
36247;SDS011;22287;50.824;5.644;2023-04-09T13:07:20;6.70;;;5.28;;
36247;SDS011;22287;50.824;5.644;2023-04-09T13:09:48;6.65;;;5.13;;
36247;SDS011;22287;50.824;5.644;2023-04-09T13:12:15;9.85;;;6.03;;
36247;SDS011;22287;50.824;5.644;2023-04-09T13:14:45;8.77;;;6.30;;
36247;SDS011;22287;50.824;5.644;2023-04-09T13:17:13;10.07;;;6.53;;
36247;SDS011;22287;50.824;5.644;2023-04-09T13:19:40;8.43;;;6.20;;
36247;SDS011;22287;50.824;5.644;2023-04-09T13:22:08;7.97;;;5.57;;
36247;SDS011;22287;50.824;5.644;2023-04-09T13:24:36;6.15;;;4.90;;
36247;SDS011;22287;50.824;5.644;2023-04-09T13:27:04;7.13;;;5.18;;
36247;SDS011;22287;50.824;5.644;2023-04-09T13:29:32;6.13;;;4.90;;
36247;SDS011;22287;50.824;5.644;2023-04-09T13:31:59;8.73;;;6.05;;
36247;SDS011;22287;50.824;5.644;2023-04-09T13:34:31;8.27;;;6.22;;
36247;SDS011;22287;50.824;5.644;2023-04-09T13:36:59;8.48;;;5.65;;
36247;SDS011;22287;50.824;5.644;2023-04-09T13:39:27;6.95;;;5.40;;
36247;SDS011;22287;50.824;5.644;2023-04-09T13:41:54;6.80;;;4.93;;
36247;SDS011;22287;50.824;5.644;2023-04-09T13:44:23;7.25;;;5.60;;
36247;SDS011;22287;50.824;5.644;2023-04-09T13:46:50;7.32;;;5.47;;
36247;SDS011;22287;50.824;5.644;2023-04-09T13:49:16;5.88;;;4.93;;
36247;SDS011;22287;50.824;5.644;2023-04-09T13:51:43;9.00;;;5.47;;
36247;SDS011;22287;50.824;5.644;2023-04-09T13:54:10;7.50;;;5.20;;
36247;SDS011;22287;50.824;5.644;2023-04-09T13:56:38;9.15;;;5.65;;
36247;SDS011;22287;50.824;5.644;2023-04-09T13:59:04;7.03;;;5.55;;
36247;SDS011;22287;50.824;5.644;2023-04-09T14:01:32;7.63;;;5.72;;
36247;SDS011;22287;50.824;5.644;2023-04-09T14:03:59;8.77;;;5.22;;
36247;SDS011;22287;50.824;5.644;2023-04-09T14:06:27;7.70;;;4.90;;
36247;SDS011;22287;50.824;5.644;2023-04-09T14:08:54;7.25;;;5.15;;
36247;SDS011;22287;50.824;5.644;2023-04-09T14:11:21;7.30;;;5.03;;
36247;SDS011;22287;50.824;5.644;2023-04-09T14:13:48;6.82;;;4.75;;
36247;SDS011;22287;50.824;5.644;2023-04-09T14:16:15;7.80;;;5.25;;
36247;SDS011;22287;50.824;5.644;2023-04-09T14:18:42;6.80;;;4.90;;
36247;SDS011;22287;50.824;5.644;2023-04-09T14:21:09;9.02;;;5.35;;
36247;SDS011;22287;50.824;5.644;2023-04-09T14:23:36;7.28;;;5.55;;
36247;SDS011;22287;50.824;5.644;2023-04-09T14:26:04;6.75;;;4.93;;
36247;SDS011;22287;50.824;5.644;2023-04-09T14:28:32;5.65;;;4.72;;
36247;SDS011;22287;50.824;5.644;2023-04-09T14:30:59;7.03;;;4.90;;
36247;SDS011;22287;50.824;5.644;2023-04-09T14:33:26;5.55;;;4.43;;
36247;SDS011;22287;50.824;5.644;2023-04-09T14:35:53;8.25;;;5.25;;
36247;SDS011;22287;50.824;5.644;2023-04-09T14:38:20;6.55;;;5.22;;
36247;SDS011;22287;50.824;5.644;2023-04-09T14:40:49;7.05;;;5.35;;
36247;SDS011;22287;50.824;5.644;2023-04-09T14:43:16;7.20;;;5.03;;
36247;SDS011;22287;50.824;5.644;2023-04-09T14:45:43;6.47;;;4.88;;
36247;SDS011;22287;50.824;5.644;2023-04-09T14:48:10;7.72;;;5.55;;
36247;SDS011;22287;50.824;5.644;2023-04-09T14:50:37;7.40;;;4.90;;
36247;SDS011;22287;50.824;5.644;2023-04-09T14:53:04;6.85;;;5.35;;
36247;SDS011;22287;50.824;5.644;2023-04-09T14:55:31;6.60;;;4.50;;
36247;SDS011;22287;50.824;5.644;2023-04-09T14:57:58;7.18;;;5.35;;
36247;SDS011;22287;50.824;5.644;2023-04-09T15:00:27;5.50;;;4.75;;
36247;SDS011;22287;50.824;5.644;2023-04-09T15:02:54;5.70;;;4.80;;
36247;SDS011;22287;50.824;5.644;2023-04-09T15:05:21;6.45;;;4.95;;
36247;SDS011;22287;50.824;5.644;2023-04-09T15:07:48;5.90;;;4.28;;
36247;SDS011;22287;50.824;5.644;2023-04-09T15:10:15;6.35;;;4.45;;